バンガロール の空港の天気 - METARとTAF

ベンガルール国際空港 ( VOBL / BLR ) - インド バンガロール
飛行場実況気象(Metar)
観測時間07/18 18:30 IST (07/18 13:00 UTC)
風向・風速西北西 3m/s
視程6000m
天気現象
全天の4割程度の雲 雲底高度 370m
全天の4割程度の雲 雲底高度 550m
気温27℃
湿度66%
気圧1007hPa
METARVOBL 181300Z 29006KT 6000 SCT012 SCT018 27/20 Q1007 NOSIG
過去の天気等 Google飛行場航空写真 Wunderground天気予報

過去48時間のMETAR

飛行場予報(TAF)
発表時間: 7/18 16:30 IST (7/18 11:00 UTC)
予報対象時間: 18日17時 IST ~ 19日23時 IST
風向・風速西北西 5m/s
視程6000m
全天の4割程度の雲 雲底高度 370m
全天の4割程度の雲 雲底高度 2440m
18日17時 IST ~ 18日23時 IST に一時的に
視程4000m
天気現象雷雨 雨
全天の4割程度の雲 雲底高度 240m
全天の4割程度の雲 雲底高度 370m
少しの積乱雲 雲底高度 760m
全天の8割程度の雲 雲底高度 2440m
19日5時 IST ~ 19日8時 IST に一時的に
視程4000m
天気現象もや
全天の4割程度の雲 雲底高度 240m
全天の4割程度の雲 雲底高度 370m
19日14時 IST ~ 19日20時 IST に一時的に
視程4000m
天気現象雨 霧雨
全天の4割程度の雲 雲底高度 240m
全天の4割程度の雲 雲底高度 370m
全天の8割程度の雲 雲底高度 2440m
TAF VOBL 181100Z 1812/1918 29010KT 6000 SCT012 SCT080
TEMPO 1812/1818 4000 TSRA RA SCT008 SCT012 FEW025CB BKN080
TEMPO 1900/1903 4000 BR SCT008 SCT012
TEMPO 1909/1915 4000 RA DZ SCT008 SCT012 BKN080